createdAt,value
2018-02-17T00:00:05.010Z,17.30
2018-02-17T00:02:34.086Z,17.08
2018-02-17T00:05:03.166Z,17.62
2018-02-17T00:07:33.670Z,18.00
2018-02-17T00:10:02.749Z,17.33
2018-02-17T00:12:31.824Z,17.17
2018-02-17T00:15:01.710Z,18.60
2018-02-17T00:17:30.782Z,17.12
2018-02-17T00:19:59.902Z,18.77
2018-02-17T00:22:28.982Z,16.85
2018-02-17T00:24:58.970Z,18.90
2018-02-17T00:27:28.078Z,17.33
2018-02-17T00:29:57.167Z,18.85
2018-02-17T00:32:26.246Z,17.33
2018-02-17T00:34:55.326Z,19.00
2018-02-17T00:37:24.403Z,18.10
2018-02-17T00:39:53.505Z,17.80
2018-02-17T00:42:22.582Z,19.15
2018-02-17T00:44:51.662Z,16.50
2018-02-17T00:47:20.806Z,17.98
2018-02-17T00:49:49.902Z,18.87
2018-02-17T00:52:18.978Z,17.98
2018-02-17T00:54:48.134Z,20.15
2018-02-17T00:57:17.280Z,17.58
2018-02-17T00:59:47.167Z,17.48
2018-02-17T01:02:16.303Z,19.85
2018-02-17T01:04:45.426Z,17.75
2018-02-17T01:07:15.310Z,19.77
2018-02-17T01:09:45.055Z,18.15
2018-02-17T01:12:14.218Z,17.95
2018-02-17T01:14:44.260Z,17.75
2018-02-17T01:17:13.366Z,20.12
2018-02-17T01:19:42.451Z,18.67
2018-02-17T01:22:11.562Z,19.05
2018-02-17T01:24:41.422Z,22.30
2018-02-17T01:27:10.498Z,18.75
2018-02-17T01:29:39.625Z,20.02
2018-02-17T01:32:09.469Z,20.27
2018-02-17T01:34:38.546Z,18.77
2018-02-17T01:37:07.635Z,18.87
2018-02-17T01:39:36.731Z,21.58
2018-02-17T01:42:06.038Z,20.37
2018-02-17T01:44:35.130Z,19.90
2018-02-17T01:47:04.230Z,20.60
2018-02-17T01:49:33.343Z,21.23
2018-02-17T01:52:02.436Z,20.58
2018-02-17T01:54:32.374Z,19.12
2018-02-17T01:57:01.460Z,20.27
2018-02-17T01:59:30.651Z,19.48
2018-02-17T02:01:59.799Z,19.77
2018-02-17T02:04:29.650Z,20.33
2018-02-17T02:06:58.761Z,21.83
2018-02-17T02:09:27.837Z,22.85
2018-02-17T02:11:56.972Z,19.45
2018-02-17T02:14:26.074Z,19.12
2018-02-17T02:16:55.909Z,22.17
2018-02-17T02:19:24.977Z,19.33
2018-02-17T02:21:54.091Z,19.70
2018-02-17T02:24:23.194Z,18.17
2018-02-17T02:26:52.274Z,20.40
2018-02-17T02:29:21.448Z,19.65
2018-02-17T02:31:51.282Z,19.48
2018-02-17T02:34:21.178Z,20.00
2018-02-17T02:36:50.249Z,19.55
2018-02-17T02:39:19.348Z,19.20
2018-02-17T02:41:48.550Z,20.15
2018-02-17T02:44:18.415Z,20.65
2018-02-17T02:46:47.533Z,18.77
2018-02-17T02:49:16.601Z,19.27
2018-02-17T02:51:46.541Z,19.10
2018-02-17T02:54:15.643Z,19.17
2018-02-17T02:56:45.478Z,20.02
2018-02-17T02:59:14.587Z,20.65
2018-02-17T03:01:43.668Z,20.15
2018-02-17T03:04:12.774Z,19.35
2018-02-17T03:06:41.886Z,19.77
2018-02-17T03:09:10.957Z,20.25
2018-02-17T03:11:40.057Z,20.55
2018-02-17T03:14:09.129Z,20.15
2018-02-17T03:16:38.989Z,19.17
2018-02-17T03:19:08.058Z,19.73
2018-02-17T03:21:37.137Z,18.58
2018-02-17T03:24:06.262Z,18.58
2018-02-17T03:26:35.365Z,20.62
2018-02-17T03:29:04.433Z,19.20
2018-02-17T03:31:33.575Z,21.90
2018-02-17T03:34:02.674Z,19.83
2018-02-17T03:36:31.741Z,19.73
2018-02-17T03:39:01.581Z,20.25
2018-02-17T03:41:31.440Z,20.73
2018-02-17T03:44:00.649Z,20.27
2018-02-17T03:46:29.718Z,18.80
2018-02-17T03:48:59.633Z,20.02
2018-02-17T03:51:28.706Z,19.75
2018-02-17T03:53:57.779Z,20.35
2018-02-17T03:56:26.890Z,20.42
2018-02-17T03:58:56.225Z,21.23
2018-02-17T04:01:25.294Z,20.90
2018-02-17T04:03:55.134Z,21.25
2018-02-17T04:06:25.056Z,20.60
2018-02-17T04:08:54.921Z,21.75
2018-02-17T04:11:24.006Z,20.90
2018-02-17T04:13:53.091Z,21.40
2018-02-17T04:16:22.292Z,20.70
2018-02-17T04:18:51.359Z,20.27
2018-02-17T04:21:20.428Z,20.27
2018-02-17T04:23:50.273Z,18.95
2018-02-17T04:26:19.346Z,20.55
2018-02-17T04:28:48.419Z,20.90
2018-02-17T04:31:17.510Z,20.60
2018-02-17T04:33:46.657Z,21.58
2018-02-17T04:36:15.730Z,21.70
2018-02-17T04:38:44.800Z,21.00
2018-02-17T04:41:15.621Z,20.40
2018-02-17T04:43:50.063Z,21.48
2018-02-17T04:46:21.899Z,21.50
2018-02-17T04:48:54.094Z,22.20
2018-02-17T04:51:23.618Z,19.33
2018-02-17T04:57:01.575Z,22.15
2018-02-17T04:59:31.990Z,21.98
2018-02-17T05:02:22.758Z,22.05
2018-02-17T05:05:07.859Z,20.62
2018-02-17T05:07:49.001Z,21.08
2018-02-17T05:10:18.070Z,22.25
2018-02-17T05:12:47.329Z,21.15
2018-02-17T05:15:19.181Z,21.75
2018-02-17T05:17:49.937Z,22.10
2018-02-17T05:23:38.050Z,21.42
2018-02-17T05:29:14.422Z,21.08
2018-02-17T05:31:45.027Z,20.95
2018-02-17T05:37:18.995Z,23.10
2018-02-17T05:39:48.102Z,22.20
2018-02-17T05:42:23.083Z,22.62
2018-02-17T05:44:54.043Z,21.17
2018-02-17T05:47:27.754Z,21.17
2018-02-17T05:49:57.181Z,23.38
2018-02-17T05:52:27.149Z,22.40
2018-02-17T05:54:56.294Z,21.65
2018-02-17T05:57:25.442Z,23.12
2018-02-17T05:59:55.302Z,22.05
2018-02-17T06:02:24.445Z,22.00
2018-02-17T06:04:53.513Z,22.02
2018-02-17T06:07:22.577Z,22.40
2018-02-17T06:09:51.704Z,22.23
2018-02-17T06:12:21.533Z,22.65
2018-02-17T06:14:51.371Z,22.70
2018-02-17T06:17:20.465Z,22.30
2018-02-17T06:19:50.343Z,23.15
2018-02-17T06:22:19.417Z,24.30
2018-02-17T06:24:48.494Z,24.25
2018-02-17T06:27:17.567Z,22.40
2018-02-17T06:29:46.685Z,24.20
2018-02-17T06:32:15.835Z,23.50
2018-02-17T06:34:44.994Z,24.15
2018-02-17T06:37:14.061Z,22.08
2018-02-17T06:39:43.969Z,21.95
2018-02-17T06:42:13.029Z,23.98
2018-02-17T06:44:42.102Z,22.60
2018-02-17T06:47:12.002Z,22.00
2018-02-17T06:49:41.117Z,23.70
2018-02-17T06:52:10.223Z,22.42
2018-02-17T06:54:39.298Z,21.83
2018-02-17T06:57:08.378Z,23.00
2018-02-17T06:59:37.466Z,22.55
2018-02-17T07:02:06.627Z,22.55
2018-02-17T07:04:35.700Z,24.85
2018-02-17T07:07:05.542Z,21.95
2018-02-17T07:09:35.378Z,20.92
2018-02-17T07:12:04.453Z,20.90
2018-02-17T07:14:33.557Z,22.50
2018-02-17T07:17:02.636Z,23.30
2018-02-17T07:19:31.731Z,22.00
2018-02-17T07:22:00.802Z,22.17
2018-02-17T07:24:30.646Z,21.55
2018-02-17T07:26:59.753Z,20.95
2018-02-17T07:29:29.589Z,22.00
2018-02-17T07:31:59.417Z,23.30
2018-02-17T07:34:29.256Z,22.02
2018-02-17T07:36:59.574Z,21.12
2018-02-17T07:39:28.659Z,24.55
2018-02-17T07:41:57.746Z,22.17
2018-02-17T07:44:26.830Z,21.90
2018-02-17T07:46:55.898Z,22.30
2018-02-17T07:49:24.999Z,22.20
2018-02-17T07:51:54.081Z,23.67
2018-02-17T07:54:23.154Z,21.62
2018-02-17T07:56:52.310Z,23.33
2018-02-17T07:59:21.386Z,24.20
2018-02-17T08:01:50.474Z,21.92
2018-02-17T08:04:20.325Z,23.15
2018-02-17T08:06:49.410Z,21.92
2018-02-17T08:09:19.301Z,23.38
2018-02-17T08:11:48.382Z,22.75
2018-02-17T08:14:17.450Z,22.23
2018-02-17T08:16:47.314Z,23.83
2018-02-17T08:19:16.477Z,23.48
2018-02-17T08:21:45.545Z,23.73
2018-02-17T08:24:14.618Z,23.55
2018-02-17T08:26:44.453Z,23.08
2018-02-17T08:29:14.286Z,22.73
2018-02-17T08:31:43.386Z,24.25
2018-02-17T08:34:13.225Z,25.45
2018-02-17T08:36:42.366Z,23.23
2018-02-17T08:39:11.434Z,23.45
2018-02-17T08:41:41.303Z,23.92
2018-02-17T08:44:10.400Z,23.73
2018-02-17T08:46:39.487Z,22.65
2018-02-17T08:49:09.323Z,21.60
2018-02-17T08:51:38.479Z,22.10
2018-02-17T08:54:07.586Z,22.02
2018-02-17T08:56:37.426Z,20.85
2018-02-17T08:59:06.493Z,22.23
2018-02-17T09:01:35.567Z,22.17
2018-02-17T09:04:05.406Z,23.20
2018-02-17T09:06:35.243Z,21.83
2018-02-17T09:09:04.355Z,21.15
2018-02-17T09:11:34.195Z,21.70
2018-02-17T09:14:03.266Z,23.50
2018-02-17T09:16:32.365Z,22.73
2018-02-17T09:19:01.451Z,23.85
2018-02-17T09:21:30.530Z,22.42
2018-02-17T09:23:59.601Z,21.12
2018-02-17T09:26:28.671Z,20.75
2018-02-17T09:28:57.751Z,23.58
2018-02-17T09:31:27.588Z,22.65
2018-02-17T09:33:56.663Z,21.05
2018-02-17T09:36:25.770Z,23.45
2018-02-17T09:38:54.869Z,21.70
2018-02-17T09:41:23.954Z,22.55
2018-02-17T09:43:53.142Z,22.90
2018-02-17T09:46:22.214Z,22.45
2018-02-17T09:48:51.286Z,20.90
2018-02-17T09:51:20.366Z,22.40
2018-02-17T09:53:49.446Z,21.25
2018-02-17T09:56:18.566Z,21.10
2018-02-17T09:58:47.646Z,22.37
2018-02-17T10:01:16.745Z,23.02
2018-02-17T10:03:45.846Z,22.17
2018-02-17T10:06:14.932Z,22.20
2018-02-17T10:08:44.391Z,23.10
2018-02-17T10:11:13.478Z,22.30
2018-02-17T10:13:42.609Z,21.92
2018-02-17T10:16:11.701Z,23.90
2018-02-17T10:18:40.793Z,22.62
2018-02-17T10:21:10.004Z,22.52
2018-02-17T10:23:39.071Z,23.87
2018-02-17T10:26:08.211Z,23.00
2018-02-17T10:28:38.042Z,22.05
2018-02-17T10:31:07.114Z,22.77
2018-02-17T10:33:36.185Z,23.95
2018-02-17T10:36:05.272Z,23.83
2018-02-17T10:38:37.286Z,24.92
2018-02-17T10:41:06.467Z,23.45
2018-02-17T10:43:35.555Z,23.10
2018-02-17T10:46:05.403Z,23.75
2018-02-17T10:48:34.591Z,23.85
2018-02-17T10:51:03.642Z,23.12
2018-02-17T10:53:32.724Z,24.30
2018-02-17T10:56:02.574Z,24.45
2018-02-17T10:58:31.646Z,23.60
2018-02-17T11:01:00.808Z,25.60
2018-02-17T11:03:29.883Z,24.70
2018-02-17T11:05:59.729Z,25.90
2018-02-17T11:08:28.869Z,24.05
2018-02-17T11:10:57.987Z,25.02
2018-02-17T11:13:27.127Z,24.40
2018-02-17T11:15:56.213Z,25.23
2018-02-17T11:18:25.281Z,23.12
2018-02-17T11:20:54.355Z,22.87
2018-02-17T11:23:23.421Z,22.65
2018-02-17T11:25:53.405Z,22.23
2018-02-17T11:28:23.252Z,23.12
2018-02-17T11:30:52.329Z,24.42
2018-02-17T11:33:21.438Z,23.38
2018-02-17T11:35:50.522Z,22.55
2018-02-17T11:38:19.670Z,20.48
2018-02-17T11:40:48.782Z,20.73
2018-02-17T11:43:17.901Z,19.02
2018-02-17T11:45:47.948Z,22.65
2018-02-17T11:48:17.062Z,18.80
2018-02-17T11:50:46.150Z,21.50
2018-02-17T11:53:15.986Z,21.15
2018-02-17T11:55:45.121Z,21.70
2018-02-17T11:58:14.213Z,24.02
2018-02-17T12:00:43.319Z,22.17
2018-02-17T12:03:12.416Z,22.40
2018-02-17T12:05:42.284Z,20.98
2018-02-17T12:08:11.350Z,18.65
2018-02-17T12:10:41.204Z,18.77
2018-02-17T12:13:10.270Z,20.40
2018-02-17T12:15:39.347Z,21.50
2018-02-17T12:18:08.450Z,21.95
2018-02-17T12:20:37.561Z,21.27
2018-02-17T12:23:06.631Z,22.00
2018-02-17T12:25:36.562Z,25.20
2018-02-17T12:28:05.696Z,20.92
2018-02-17T12:30:34.830Z,20.75
2018-02-17T12:33:03.901Z,20.80
2018-02-17T12:35:33.756Z,20.40
2018-02-17T12:38:02.842Z,19.42
2018-02-17T12:40:32.895Z,19.48
2018-02-17T12:43:01.982Z,19.17
2018-02-17T12:45:31.817Z,20.33
2018-02-17T12:48:00.910Z,19.65
2018-02-17T12:50:30.837Z,20.12
2018-02-17T12:53:01.039Z,19.52
2018-02-17T12:55:30.139Z,17.87
2018-02-17T12:57:59.209Z,18.73
2018-02-17T13:00:28.622Z,19.42
2018-02-17T13:02:58.463Z,18.40
2018-02-17T13:05:27.538Z,18.35
2018-02-17T13:07:56.696Z,17.37
2018-02-17T13:10:25.766Z,17.77
2018-02-17T13:12:55.605Z,17.35
2018-02-17T13:15:25.503Z,17.02
2018-02-17T13:17:54.573Z,16.48
2018-02-17T13:20:23.644Z,14.00
2018-02-17T13:22:53.902Z,12.93
2018-02-17T13:25:23.588Z,14.27
2018-02-17T13:27:52.653Z,12.52
2018-02-17T13:30:21.866Z,12.40
2018-02-17T13:32:50.946Z,12.70
2018-02-17T13:35:21.766Z,12.52
2018-02-17T13:37:50.837Z,13.25
2018-02-17T13:40:19.910Z,11.18
2018-02-17T13:42:49.737Z,8.65
2018-02-17T13:45:18.903Z,5.25
2018-02-17T13:47:48.050Z,4.30
2018-02-17T13:50:17.147Z,4.37
2018-02-17T13:52:46.211Z,3.65
2018-02-17T13:55:15.294Z,5.12
2018-02-17T13:57:45.126Z,5.32
2018-02-17T14:00:15.088Z,3.75
2018-02-17T14:02:44.236Z,4.78
2018-02-17T14:05:14.094Z,4.45
2018-02-17T14:07:43.933Z,3.70
2018-02-17T14:10:13.005Z,3.92
2018-02-17T14:12:42.083Z,4.95
2018-02-17T14:15:11.166Z,8.13
2018-02-17T14:17:40.359Z,9.18
2018-02-17T14:20:10.201Z,10.88
2018-02-17T14:22:39.270Z,8.30
2018-02-17T14:25:08.382Z,9.63
2018-02-17T14:27:37.441Z,7.53
2018-02-17T14:30:06.541Z,6.82
2018-02-17T14:32:35.611Z,5.43
2018-02-17T14:35:04.766Z,5.05
2018-02-17T14:37:33.834Z,5.70
2018-02-17T14:40:02.910Z,5.45
2018-02-17T14:42:32.000Z,6.40
2018-02-17T14:45:01.101Z,5.80
2018-02-17T14:47:30.203Z,6.37
2018-02-17T14:50:00.029Z,7.07
2018-02-17T14:52:29.879Z,5.80
2018-02-17T14:54:59.090Z,7.62
2018-02-17T14:57:28.150Z,6.60
2018-02-17T14:59:57.213Z,8.02
2018-02-17T15:02:26.270Z,6.87
2018-02-17T15:04:55.366Z,7.55
2018-02-17T15:07:24.926Z,6.95
2018-02-17T15:09:54.823Z,6.40
2018-02-17T15:12:23.992Z,7.35
2018-02-17T15:14:53.076Z,8.20
2018-02-17T15:17:22.905Z,8.07
2018-02-17T15:19:52.773Z,7.85
2018-02-17T15:22:21.858Z,9.43
2018-02-17T15:24:50.930Z,8.77
2018-02-17T15:27:20.062Z,9.00
2018-02-17T15:29:49.903Z,9.13
2018-02-17T15:32:19.010Z,10.18
2018-02-17T15:34:48.078Z,8.65
2018-02-17T15:37:17.924Z,10.27
2018-02-17T15:39:47.781Z,9.88
2018-02-17T15:42:16.862Z,10.55
2018-02-17T15:44:46.722Z,10.95
2018-02-17T15:47:19.553Z,11.20
2018-02-17T15:49:48.621Z,10.68
2018-02-17T15:52:17.713Z,10.15
2018-02-17T15:54:47.641Z,10.18
2018-02-17T15:57:17.507Z,10.25
2018-02-17T15:59:46.594Z,11.45
2018-02-17T16:02:15.683Z,11.90
2018-02-17T16:04:44.835Z,12.25
2018-02-17T16:07:13.903Z,12.07
2018-02-17T16:09:43.803Z,12.23
2018-02-17T16:12:12.863Z,12.45
2018-02-17T16:14:42.694Z,12.50
2018-02-17T16:17:12.278Z,13.00
2018-02-17T16:19:41.603Z,13.35
2018-02-17T16:22:10.679Z,14.50
2018-02-17T16:24:39.759Z,12.80
2018-02-17T16:27:08.830Z,11.82
2018-02-17T16:29:37.962Z,13.05
2018-02-17T16:32:07.797Z,11.55
2018-02-17T16:34:36.865Z,11.50
2018-02-17T16:37:05.929Z,12.23
2018-02-17T16:39:34.993Z,14.35
2018-02-17T16:42:04.870Z,15.10
2018-02-17T16:44:33.943Z,14.93
2018-02-17T16:47:03.782Z,13.55
2018-02-17T16:49:33.641Z,13.38
2018-02-17T16:52:02.718Z,12.18
2018-02-17T16:54:32.614Z,13.30
2018-02-17T16:57:01.749Z,11.45
2018-02-17T16:59:31.622Z,9.55
2018-02-17T17:02:00.780Z,10.20
2018-02-17T17:04:29.881Z,9.43
2018-02-17T17:06:58.949Z,8.02
2018-02-17T17:09:28.014Z,9.07
2018-02-17T17:11:57.087Z,7.68
2018-02-17T17:14:26.149Z,8.65
2018-02-17T17:16:55.983Z,7.78
2018-02-17T17:19:25.819Z,9.13
2018-02-17T17:21:54.882Z,9.35
2018-02-17T17:24:23.952Z,13.18
2018-02-17T17:26:53.030Z,7.85
2018-02-17T17:29:22.878Z,8.30
2018-02-17T17:31:51.938Z,9.90
2018-02-17T17:34:21.206Z,8.15
2018-02-17T17:36:50.267Z,8.50
2018-02-17T17:39:19.358Z,9.75
2018-02-17T17:41:48.425Z,9.00
2018-02-17T17:44:17.699Z,10.13
2018-02-17T17:46:46.769Z,11.52
2018-02-17T17:49:15.912Z,12.20
2018-02-17T17:51:44.978Z,12.27
2018-02-17T17:54:14.051Z,11.95
2018-02-17T17:56:43.116Z,11.73
2018-02-17T17:59:12.185Z,11.45
2018-02-17T18:01:42.018Z,11.60
2018-02-17T18:04:11.857Z,12.40
2018-02-17T18:06:40.974Z,13.45
2018-02-17T18:09:10.073Z,13.07
2018-02-17T18:11:39.138Z,13.25
2018-02-17T18:14:08.255Z,14.57
2018-02-17T18:16:37.322Z,14.50
2018-02-17T18:19:06.393Z,13.73
2018-02-17T18:21:36.273Z,13.88
2018-02-17T18:24:05.388Z,12.90
2018-02-17T18:26:34.467Z,13.00
2018-02-17T18:29:03.544Z,14.35
2018-02-17T18:31:33.383Z,14.68
2018-02-17T18:34:03.302Z,13.07
2018-02-17T18:36:33.146Z,13.85
2018-02-17T18:39:02.230Z,15.10
2018-02-17T18:41:31.318Z,13.65
2018-02-17T18:44:00.415Z,15.30
2018-02-17T18:46:30.267Z,13.40
2018-02-17T18:49:00.204Z,16.62
2018-02-17T18:51:29.290Z,16.70
2018-02-17T18:53:58.466Z,17.65
2018-02-17T18:56:27.541Z,14.87
2018-02-17T18:58:56.663Z,16.35
2018-02-17T19:01:26.497Z,15.93
2018-02-17T19:03:56.334Z,16.05
2018-02-17T19:06:25.402Z,13.77
2018-02-17T19:08:54.546Z,18.20
2018-02-17T19:11:24.394Z,16.87
2018-02-17T19:13:53.475Z,14.15
2018-02-17T19:16:22.545Z,12.95
2018-02-17T19:18:51.639Z,14.38
2018-02-17T19:21:20.740Z,13.70
2018-02-17T19:23:49.906Z,10.93
2018-02-17T19:26:18.977Z,10.60
2018-02-17T19:28:48.045Z,11.68
2018-02-17T19:31:17.875Z,9.77
2018-02-17T19:33:47.713Z,9.90
2018-02-17T19:36:16.851Z,12.02
2018-02-17T19:38:45.961Z,11.40
2018-02-17T19:41:15.029Z,11.00
2018-02-17T19:43:44.868Z,11.77
2018-02-17T19:46:13.972Z,11.30
2018-02-17T19:48:43.058Z,10.90
2018-02-17T19:51:12.140Z,10.95
2018-02-17T19:53:41.561Z,9.75
2018-02-17T19:56:10.653Z,9.68
2018-02-17T19:58:39.746Z,10.02
2018-02-17T20:01:08.811Z,9.65
2018-02-17T20:03:37.946Z,9.68
2018-02-17T20:06:08.098Z,11.85
2018-02-17T20:08:37.174Z,10.25
2018-02-17T20:11:06.299Z,10.55
2018-02-17T20:13:36.134Z,11.20
2018-02-17T20:16:05.234Z,11.05
2018-02-17T20:18:35.070Z,10.10
2018-02-17T20:21:04.138Z,10.85
2018-02-17T20:23:33.270Z,10.90
2018-02-17T20:26:03.112Z,10.52
2018-02-17T20:28:33.062Z,13.43
2018-02-17T20:31:02.158Z,11.25
2018-02-17T20:33:32.004Z,12.77
2018-02-17T20:36:01.070Z,12.35
2018-02-17T20:38:30.150Z,9.65
2018-02-17T20:40:59.249Z,9.40
2018-02-17T20:43:28.379Z,10.30
2018-02-17T20:45:57.422Z,10.55
2018-02-17T20:48:27.265Z,10.93
2018-02-17T20:50:57.175Z,8.80
2018-02-17T20:53:26.254Z,9.27
2018-02-17T20:55:55.334Z,8.88
2018-02-17T20:58:24.451Z,10.55
2018-02-17T21:00:53.527Z,8.70
2018-02-17T21:03:23.363Z,10.00
2018-02-17T21:05:52.434Z,9.85
2018-02-17T21:08:22.422Z,8.40
2018-02-17T21:10:51.483Z,8.38
2018-02-17T21:13:20.629Z,8.70
2018-02-17T21:15:49.690Z,8.13
2018-02-17T21:18:18.763Z,8.52
2018-02-17T21:20:47.832Z,8.15
2018-02-17T21:23:17.675Z,7.95
2018-02-17T21:25:47.509Z,6.90
2018-02-17T21:28:17.362Z,6.75
2018-02-17T21:30:46.494Z,7.18
2018-02-17T21:33:15.558Z,6.45
2018-02-17T21:35:44.621Z,5.80
2018-02-17T21:38:13.686Z,6.68
2018-02-17T21:40:42.810Z,6.75
2018-02-17T21:43:11.882Z,8.93
2018-02-17T21:45:41.714Z,8.63
2018-02-17T21:48:11.605Z,8.95
2018-02-17T21:50:40.669Z,8.07
2018-02-17T21:53:09.765Z,9.07
2018-02-17T21:55:39.593Z,8.48
2018-02-17T21:58:08.665Z,7.80
2018-02-17T22:00:37.783Z,7.57
2018-02-17T22:03:06.865Z,8.20
2018-02-17T22:05:35.963Z,8.10
2018-02-17T22:08:05.055Z,10.07
2018-02-17T22:10:34.178Z,8.80
2018-02-17T22:13:03.259Z,8.65
2018-02-17T22:15:33.213Z,8.40
2018-02-17T22:18:02.279Z,9.60
2018-02-17T22:20:31.341Z,9.60
2018-02-17T22:23:00.706Z,9.50
2018-02-17T22:25:29.770Z,10.73
2018-02-17T22:27:58.837Z,10.25
2018-02-17T22:30:28.675Z,10.95
2018-02-17T22:32:57.769Z,11.12
2018-02-17T22:35:27.601Z,13.48
2018-02-17T22:37:56.680Z,11.75
2018-02-17T22:40:25.813Z,11.73
2018-02-17T22:42:54.886Z,12.35
2018-02-17T22:45:23.957Z,12.10
2018-02-17T22:47:53.032Z,13.55
2018-02-17T22:50:22.349Z,13.45
2018-02-17T22:52:51.497Z,12.10
2018-02-17T22:55:21.273Z,12.45
2018-02-17T22:57:50.386Z,13.85
2018-02-17T23:00:31.209Z,12.52
2018-02-17T23:03:01.058Z,13.02
2018-02-17T23:05:30.174Z,15.45
2018-02-17T23:07:59.239Z,12.90
2018-02-17T23:10:28.314Z,13.98
2018-02-17T23:12:57.388Z,14.50
2018-02-17T23:15:27.265Z,12.98
2018-02-17T23:17:56.338Z,14.32
2018-02-17T23:20:25.414Z,14.30
2018-02-17T23:22:55.246Z,13.15
2018-02-17T23:25:25.078Z,13.75
2018-02-17T23:27:54.943Z,12.98
2018-02-17T23:30:24.042Z,13.70
2018-02-17T23:32:53.184Z,14.02
2018-02-17T23:35:22.250Z,11.90
2018-02-17T23:37:51.333Z,13.40
2018-02-17T23:40:20.430Z,12.55
2018-02-17T23:42:49.533Z,13.68
2018-02-17T23:45:18.627Z,13.55
2018-02-17T23:47:48.691Z,13.75
2018-02-17T23:50:17.785Z,13.38
2018-02-17T23:52:46.858Z,12.35
2018-02-17T23:55:16.030Z,12.50
2018-02-17T23:57:45.102Z,13.43
